Time;durP1;ratioP1;P1;durP2;ratioP2;P2;SDS_P1;SDS_P2;PMS_P1;PMS_P2;Temp;Humidity;BMP_temperature;BMP_pressure;BME280_temperature;BME280_humidity;BME280_pressure;Samples;Min_cycle;Max_cycle;Signal;HPM_P1;HPM_P2
2024/04/17 00:00:43;;;;;;;0.98;0.60;;;;;;;;;;11042952;26;20004;-74
2024/04/17 00:05:47;;;;;;;0.70;0.50;;;;;;;;;;11035534;26;20020;-74
2024/04/17 00:10:52;;;;;;;0.77;0.60;;;;;;;;;;11032630;26;20023;-74
2024/04/17 00:16:02;;;;;;;1.02;0.60;;;;;;;;;;11003957;26;20123;-75
2024/04/17 00:21:07;;;;;;;0.90;0.60;;;;;;;;;;10964681;26;20094;-74
2024/04/17 00:26:13;;;;;;;0.43;0.43;;;;;;;;;;11025948;26;20767;-73
2024/04/17 00:31:20;;;;;;;4.57;0.63;;;;;;;;;;10995649;26;20001;-74
2024/04/17 00:36:24;;;;;;;0.40;0.35;;;;;;;;;;11028861;26;20041;-74
2024/04/17 00:41:29;;;;;;;1.45;0.80;;;;;;;;;;11035818;26;20077;-74
2024/04/17 00:46:37;;;;;;;1.27;0.80;;;;;;;;;;11010381;26;20009;-74
2024/04/17 00:51:43;;;;;;;0.77;0.68;;;;;;;;;;11035531;26;20020;-74
2024/04/17 00:56:48;;;;;;;2.95;0.60;;;;;;;;;;11035965;26;20015;-73
2024/04/17 01:01:55;;;;;;;0.90;0.60;;;;;;;;;;11027835;26;20224;-74
2024/04/17 01:07:04;;;;;;;0.75;0.52;;;;;;;;;;11024958;26;20827;-74
2024/04/17 01:12:09;;;;;;;1.10;0.80;;;;;;;;;;11034026;26;20080;-73
2024/04/17 01:17:16;;;;;;;0.47;0.47;;;;;;;;;;11024307;26;20081;-73
2024/04/17 01:22:20;;;;;;;0.80;0.70;;;;;;;;;;11029701;26;20005;-73
2024/04/17 01:27:28;;;;;;;1.90;0.80;;;;;;;;;;11027420;26;20105;-74
2024/04/17 01:32:32;;;;;;;1.75;0.75;;;;;;;;;;10995324;26;20081;-73
2024/04/17 01:37:38;;;;;;;2.75;0.75;;;;;;;;;;11027798;26;20082;-73
2024/04/17 01:42:47;;;;;;;0.98;0.70;;;;;;;;;;11037168;26;20104;-73
2024/04/17 01:47:51;;;;;;;1.35;0.60;;;;;;;;;;11032327;26;20375;-74
2024/04/17 01:52:56;;;;;;;1.02;0.45;;;;;;;;;;11028665;26;20019;-74
2024/04/17 01:58:03;;;;;;;1.65;0.68;;;;;;;;;;11009048;26;20082;-75
2024/04/17 02:03:09;;;;;;;0.70;0.70;;;;;;;;;;11043872;26;20016;-74
2024/04/17 02:08:14;;;;;;;1.63;0.90;;;;;;;;;;11035774;26;20017;-74
2024/04/17 02:13:21;;;;;;;0.90;0.65;;;;;;;;;;11034328;26;20103;-75
2024/04/17 02:18:25;;;;;;;0.50;0.50;;;;;;;;;;11037515;26;20020;-74
2024/04/17 02:23:30;;;;;;;2.53;0.63;;;;;;;;;;11038866;26;20005;-75
2024/04/17 02:28:38;;;;;;;0.68;0.60;;;;;;;;;;11031562;26;20001;-74
2024/04/17 02:33:42;;;;;;;1.10;0.80;;;;;;;;;;11031229;26;20025;-74
2024/04/17 02:38:47;;;;;;;1.67;0.60;;;;;;;;;;11023533;26;22867;-73
2024/04/17 02:43:54;;;;;;;0.90;0.70;;;;;;;;;;11025912;26;20012;-74
2024/04/17 02:48:59;;;;;;;1.15;0.60;;;;;;;;;;11008405;26;20802;-74
2024/04/17 02:54:03;;;;;;;1.92;0.80;;;;;;;;;;11033675;26;20734;-74
2024/04/17 02:59:10;;;;;;;1.33;0.80;;;;;;;;;;11028715;26;20192;-74
2024/04/17 03:04:15;;;;;;;0.63;0.50;;;;;;;;;;11003033;26;20021;-74
2024/04/17 03:09:19;;;;;;;1.00;0.90;;;;;;;;;;11005961;26;20528;-75
2024/04/17 03:14:26;;;;;;;1.05;0.80;;;;;;;;;;11029026;26;20011;-75
2024/04/17 03:19:33;;;;;;;0.82;0.80;;;;;;;;;;11036652;26;20009;-75
2024/04/17 03:24:38;;;;;;;1.27;0.70;;;;;;;;;;11034096;26;20044;-74
2024/04/17 03:29:45;;;;;;;0.98;0.60;;;;;;;;;;10998323;26;20009;-74
2024/04/17 03:34:49;;;;;;;1.77;0.80;;;;;;;;;;11037795;26;20001;-74
2024/04/17 03:39:54;;;;;;;1.67;1.33;;;;;;;;;;11046619;26;20778;-74
2024/04/17 03:45:03;;;;;;;1.50;1.20;;;;;;;;;;11034588;26;20001;-74
2024/04/17 03:50:07;;;;;;;1.67;0.98;;;;;;;;;;11032526;26;20497;-74
2024/04/17 03:55:12;;;;;;;2.65;0.80;;;;;;;;;;11002237;26;20016;-74
2024/04/17 04:00:20;;;;;;;0.73;0.60;;;;;;;;;;11027528;26;20001;-74
2024/04/17 04:05:24;;;;;;;0.88;0.70;;;;;;;;;;11014182;26;20063;-74
2024/04/17 04:10:30;;;;;;;2.88;1.00;;;;;;;;;;11036824;26;20017;-74
2024/04/17 04:15:37;;;;;;;2.80;1.23;;;;;;;;;;11033627;26;20499;-74
2024/04/17 04:20:42;;;;;;;3.78;1.20;;;;;;;;;;11036317;26;20001;-75
2024/04/17 04:25:47;;;;;;;2.42;1.67;;;;;;;;;;11046686;26;20354;-74
2024/04/17 04:30:55;;;;;;;2.25;1.42;;;;;;;;;;11029973;26;20525;-75
2024/04/17 04:36:00;;;;;;;2.00;1.52;;;;;;;;;;11029966;26;20083;-75
2024/04/17 04:41:04;;;;;;;1.75;1.20;;;;;;;;;;11038586;26;20019;-74
2024/04/17 04:46:12;;;;;;;2.20;1.58;;;;;;;;;;11022218;26;20016;-73
2024/04/17 04:51:16;;;;;;;3.35;1.98;;;;;;;;;;11038792;26;20081;-75
2024/04/17 04:56:21;;;;;;;4.10;1.67;;;;;;;;;;11034952;26;19997;-74
2024/04/17 05:01:29;;;;;;;2.50;1.55;;;;;;;;;;11034054;26;20020;-74
2024/04/17 05:06:34;;;;;;;2.08;1.30;;;;;;;;;;11035322;26;20008;-74
2024/04/17 05:11:40;;;;;;;3.63;1.65;;;;;;;;;;11033068;26;19997;-75
2024/04/17 05:16:47;;;;;;;2.28;1.50;;;;;;;;;;11030717;26;20016;-75
2024/04/17 05:21:54;;;;;;;1.17;1.05;;;;;;;;;;11037860;26;20052;-74
2024/04/17 05:26:59;;;;;;;1.63;1.30;;;;;;;;;;11041521;26;20004;-74
2024/04/17 05:32:06;;;;;;;1.75;1.40;;;;;;;;;;11025156;26;20004;-74
2024/04/17 05:37:12;;;;;;;1.85;1.45;;;;;;;;;;11007524;26;20013;-75
2024/04/17 05:42:16;;;;;;;2.88;1.13;;;;;;;;;;11038121;26;20132;-75
2024/04/17 05:47:24;;;;;;;4.50;1.50;;;;;;;;;;11040237;26;20021;-74
2024/04/17 05:52:29;;;;;;;3.40;1.80;;;;;;;;;;11027205;26;20319;-75
2024/04/17 05:57:33;;;;;;;2.70;1.50;;;;;;;;;;11020133;26;20005;-74
2024/04/17 06:02:40;;;;;;;1.75;1.30;;;;;;;;;;11029309;26;20414;-74
2024/04/17 06:07:45;;;;;;;2.30;1.52;;;;;;;;;;11031681;26;20005;-74
2024/04/17 06:12:49;;;;;;;2.80;1.73;;;;;;;;;;11035650;26;20023;-74
2024/04/17 06:17:57;;;;;;;3.70;1.98;;;;;;;;;;11026091;26;20001;-74
2024/04/17 06:23:03;;;;;;;1.67;1.02;;;;;;;;;;11038638;26;20080;-75
2024/04/17 06:28:08;;;;;;;2.25;1.38;;;;;;;;;;11026959;26;20014;-74
2024/04/17 06:33:15;;;;;;;1.38;0.73;;;;;;;;;;11032633;26;20648;-74
2024/04/17 06:38:20;;;;;;;1.23;0.85;;;;;;;;;;11024156;26;20686;-74
2024/04/17 06:43:25;;;;;;;1.83;1.23;;;;;;;;;;11024819;26;20562;-73
2024/04/17 06:48:32;;;;;;;0.98;0.80;;;;;;;;;;11040152;26;20000;-73
2024/04/17 06:53:41;;;;;;;1.13;0.65;;;;;;;;;;11035714;26;20112;-74
2024/04/17 06:58:47;;;;;;;2.40;0.82;;;;;;;;;;11031138;26;20021;-74
2024/04/17 07:03:54;;;;;;;1.10;1.00;;;;;;;;;;11030421;26;20416;-74
2024/04/17 07:09:11;;;;;;;2.30;1.02;;;;;;;;;;11030486;26;20086;-75
2024/04/17 07:14:19;;;;;;;0.50;0.40;;;;;;;;;;10948205;26;20016;-75
2024/04/17 07:19:26;;;;;;;1.10;0.80;;;;;;;;;;10961776;26;20020;-75
2024/04/17 07:24:31;;;;;;;0.55;0.52;;;;;;;;;;10947537;26;20045;-75
2024/04/17 07:29:36;;;;;;;2.03;1.40;;;;;;;;;;10947879;26;20584;-74
2024/04/17 07:34:43;;;;;;;1.85;1.13;;;;;;;;;;10947921;26;20091;-74
2024/04/17 07:40:03;;;;;;;3.10;1.30;;;;;;;;;;10948443;26;20021;-74
2024/04/17 07:45:08;;;;;;;1.42;1.25;;;;;;;;;;10957504;26;20462;-74
2024/04/17 07:50:18;;;;;;;2.80;1.50;;;;;;;;;;10956282;26;20057;-75
2024/04/17 07:55:23;;;;;;;2.05;1.30;;;;;;;;;;10937885;26;20105;-75
2024/04/17 08:00:28;;;;;;;2.60;1.40;;;;;;;;;;10958683;26;20529;-75
2024/04/17 08:05:35;;;;;;;1.67;0.98;;;;;;;;;;10953171;26;20005;-73
2024/04/17 08:10:39;;;;;;;1.75;0.95;;;;;;;;;;10949316;26;20016;-75
2024/04/17 08:15:44;;;;;;;1.48;1.20;;;;;;;;;;10954047;26;20005;-74
2024/04/17 08:20:57;;;;;;;1.65;1.00;;;;;;;;;;10940410;26;20016;-74
2024/04/17 08:26:01;;;;;;;2.00;1.27;;;;;;;;;;10952193;26;19998;-74
2024/04/17 08:31:06;;;;;;;1.42;1.13;;;;;;;;;;10950650;26;20121;-74
2024/04/17 08:36:13;;;;;;;2.15;1.17;;;;;;;;;;10921100;26;20037;-74
2024/04/17 08:41:18;;;;;;;1.33;1.08;;;;;;;;;;10951189;26;20347;-74
2024/04/17 08:46:23;;;;;;;1.90;1.35;;;;;;;;;;10951194;26;20036;-74
2024/04/17 08:51:31;;;;;;;1.55;1.30;;;;;;;;;;10939661;26;20044;-74
2024/04/17 08:56:36;;;;;;;1.27;1.15;;;;;;;;;;10950676;26;20476;-74
2024/04/17 09:01:41;;;;;;;1.33;1.23;;;;;;;;;;10947162;26;20017;-73
2024/04/17 09:06:50;;;;;;;1.33;1.17;;;;;;;;;;10938195;26;20016;-73
2024/04/17 09:11:56;;;;;;;2.22;1.50;;;;;;;;;;10940926;26;20012;-74
2024/04/17 09:17:02;;;;;;;2.08;1.58;;;;;;;;;;10925258;26;20281;-74
2024/04/17 09:22:10;;;;;;;2.58;1.85;;;;;;;;;;10945157;26;20009;-74
2024/04/17 09:27:16;;;;;;;2.92;2.00;;;;;;;;;;10943970;26;20012;-75
2024/04/17 09:32:22;;;;;;;1.80;1.42;;;;;;;;;;10950659;26;20091;-74
2024/04/17 09:37:30;;;;;;;2.42;1.88;;;;;;;;;;10952172;26;20454;-75
2024/04/17 09:42:37;;;;;;;2.17;1.45;;;;;;;;;;10946139;26;20009;-75
2024/04/17 09:47:43;;;;;;;2.25;1.80;;;;;;;;;;10954882;26;20485;-73
2024/04/17 09:52:53;;;;;;;5.07;2.22;;;;;;;;;;10945337;26;20040;-73
2024/04/17 09:57:59;;;;;;;2.92;2.15;;;;;;;;;;10946275;26;20335;-73
2024/04/17 10:03:03;;;;;;;4.25;2.03;;;;;;;;;;10944728;26;20713;-73
2024/04/17 10:08:11;;;;;;;3.05;2.45;;;;;;;;;;10940735;26;20776;-74
2024/04/17 10:13:16;;;;;;;3.25;2.15;;;;;;;;;;10946592;26;20005;-75
2024/04/17 10:18:23;;;;;;;2.00;1.90;;;;;;;;;;10938541;26;19997;-74
2024/04/17 10:23:31;;;;;;;2.40;2.20;;;;;;;;;;10946031;26;20320;-76
2024/04/17 10:28:36;;;;;;;2.70;2.50;;;;;;;;;;10934924;26;20304;-75
2024/04/17 10:33:41;;;;;;;2.58;2.38;;;;;;;;;;10943365;26;20723;-76
2024/04/17 10:38:49;;;;;;;3.88;2.50;;;;;;;;;;10904504;26;20005;-75
2024/04/17 10:43:54;;;;;;;2.60;2.40;;;;;;;;;;10936698;26;20029;-75
2024/04/17 10:48:58;;;;;;;3.78;2.33;;;;;;;;;;10940557;26;20053;-75
2024/04/17 10:54:06;;;;;;;2.58;2.30;;;;;;;;;;10937888;26;20001;-75
2024/04/17 10:59:11;;;;;;;4.20;2.90;;;;;;;;;;10937243;26;20039;-74
2024/04/17 11:04:15;;;;;;;4.13;2.67;;;;;;;;;;10943482;26;20028;-74
2024/04/17 11:09:23;;;;;;;4.22;2.75;;;;;;;;;;10950092;26;20020;-74
2024/04/17 11:14:27;;;;;;;3.45;2.30;;;;;;;;;;11024036;26;20091;-74
2024/04/17 11:19:32;;;;;;;4.10;2.38;;;;;;;;;;11024470;26;20024;-74
2024/04/17 11:24:39;;;;;;;4.30;2.95;;;;;;;;;;11020933;26;20005;-74
2024/04/17 11:29:47;;;;;;;3.10;2.80;;;;;;;;;;11015629;26;20005;-74
2024/04/17 11:34:53;;;;;;;2.42;2.08;;;;;;;;;;11018014;26;20005;-77
2024/04/17 11:40:01;;;;;;;2.40;1.85;;;;;;;;;;11026005;26;20017;-75
2024/04/17 11:45:14;;;;;;;2.40;2.20;;;;;;;;;;11016041;26;20001;-76
2024/04/17 11:50:23;;;;;;;2.25;2.05;;;;;;;;;;10992025;26;20024;-76
2024/04/17 11:55:33;;;;;;;2.40;2.20;;;;;;;;;;11022916;26;20004;-75
2024/04/17 12:00:41;;;;;;;2.65;2.10;;;;;;;;;;11028638;26;20012;-76
2024/04/17 12:05:55;;;;;;;4.85;2.60;;;;;;;;;;11023167;26;20311;-76
2024/04/17 12:11:07;;;;;;;2.55;2.03;;;;;;;;;;11028826;26;20012;-76
2024/04/17 12:16:13;;;;;;;3.45;2.47;;;;;;;;;;11019533;26;20110;-75
2024/04/17 12:21:20;;;;;;;1.90;1.75;;;;;;;;;;11000253;26;20005;-77
2024/04/17 12:31:49;;;;;;;3.88;2.15;;;;;;;;;;11015502;26;20049;-76
2024/04/17 12:36:56;;;;;;;3.83;2.47;;;;;;;;;;11021243;26;20009;-76
2024/04/17 12:42:06;;;;;;;5.90;2.78;;;;;;;;;;11029114;26;20017;-77
2024/04/17 12:47:15;;;;;;;8.05;3.47;;;;;;;;;;11016617;26;20005;-77
2024/04/17 12:52:21;;;;;;;2.80;1.80;;;;;;;;;;11022204;26;20001;-75
2024/04/17 12:57:28;;;;;;;3.00;1.45;;;;;;;;;;10995530;26;20021;-73
2024/04/17 13:02:32;;;;;;;1.30;0.90;;;;;;;;;;11024970;26;20015;-73
2024/04/17 13:07:40;;;;;;;2.03;1.00;;;;;;;;;;11019809;26;20407;-74
2024/04/17 13:12:49;;;;;;;2.45;1.17;;;;;;;;;;11018015;26;20009;-74
2024/04/17 13:17:54;;;;;;;1.27;0.90;;;;;;;;;;11023228;26;20299;-75
2024/04/17 13:22:59;;;;;;;2.45;0.95;;;;;;;;;;11005048;26;20009;-75
2024/04/17 13:28:20;;;;;;;1.90;1.20;;;;;;;;;;11016742;26;20519;-76
2024/04/17 13:33:24;;;;;;;1.80;1.30;;;;;;;;;;11022679;26;20027;-74
2024/04/17 13:38:30;;;;;;;1.77;1.30;;;;;;;;;;10989705;26;20000;-74
2024/04/17 13:43:38;;;;;;;2.47;1.50;;;;;;;;;;10980694;26;20253;-75
2024/04/17 13:48:43;;;;;;;2.10;1.27;;;;;;;;;;11021433;26;20004;-73
2024/04/17 13:53:50;;;;;;;2.67;1.50;;;;;;;;;;11019359;26;20014;-75
2024/04/17 13:58:58;;;;;;;2.83;1.52;;;;;;;;;;10981766;26;20005;-76
2024/04/17 14:04:03;;;;;;;2.17;1.13;;;;;;;;;;11023294;26;20047;-74
2024/04/17 14:09:08;;;;;;;1.27;0.77;;;;;;;;;;11013690;26;19997;-74
2024/04/17 14:14:17;;;;;;;1.90;1.00;;;;;;;;;;11020788;26;20012;-75
2024/04/17 14:19:22;;;;;;;2.63;1.10;;;;;;;;;;11026535;26;20013;-75
2024/04/17 14:24:29;;;;;;;2.45;1.40;;;;;;;;;;11004852;26;20723;-75
2024/04/17 14:29:36;;;;;;;2.55;1.13;;;;;;;;;;11000878;26;20017;-74
2024/04/17 14:34:45;;;;;;;2.40;1.60;;;;;;;;;;11012121;26;20008;-74
2024/04/17 14:39:49;;;;;;;3.05;1.60;;;;;;;;;;10972729;26;20013;-74
2024/04/17 14:44:59;;;;;;;2.22;1.20;;;;;;;;;;11010592;26;20012;-74
2024/04/17 14:50:03;;;;;;;3.63;1.73;;;;;;;;;;11017411;26;20090;-74
2024/04/17 14:55:12;;;;;;;5.20;2.20;;;;;;;;;;11021813;26;20048;-74
2024/04/17 15:00:20;;;;;;;3.20;1.85;;;;;;;;;;11023424;26;20118;-74
2024/04/17 15:05:24;;;;;;;2.97;1.80;;;;;;;;;;11027466;26;20009;-74
2024/04/17 15:10:29;;;;;;;6.07;1.90;;;;;;;;;;11010377;26;20010;-74
2024/04/17 15:15:36;;;;;;;2.30;1.00;;;;;;;;;;10946688;26;20001;-75
2024/04/17 15:20:41;;;;;;;2.70;1.40;;;;;;;;;;10933975;26;20147;-75
2024/04/17 15:25:45;;;;;;;6.78;1.55;;;;;;;;;;10957368;26;20335;-74
2024/04/17 15:31:00;;;;;;;1.90;1.05;;;;;;;;;;10946816;26;20024;-73
2024/04/17 15:36:06;;;;;;;2.00;1.25;;;;;;;;;;10952013;26;20129;-74
2024/04/17 15:41:13;;;;;;;1.63;1.25;;;;;;;;;;10953353;26;20049;-75
2024/04/17 15:46:20;;;;;;;3.72;1.98;;;;;;;;;;10944637;26;20539;-74
2024/04/17 15:51:25;;;;;;;3.17;1.55;;;;;;;;;;10943449;26;20016;-73
2024/04/17 15:56:30;;;;;;;3.30;1.80;;;;;;;;;;10957438;26;20105;-73
2024/04/17 16:01:40;;;;;;;2.70;1.75;;;;;;;;;;10938211;26;22889;-74
2024/04/17 16:06:45;;;;;;;2.40;1.50;;;;;;;;;;10910659;26;20010;-75
2024/04/17 16:11:50;;;;;;;2.33;1.35;;;;;;;;;;10987340;26;20083;-74
2024/04/17 16:16:58;;;;;;;2.33;1.50;;;;;;;;;;11024902;26;20118;-74
2024/04/17 16:22:05;;;;;;;2.80;1.80;;;;;;;;;;11023561;26;20428;-74
2024/04/17 16:27:10;;;;;;;3.25;1.60;;;;;;;;;;11017929;26;20013;-74
2024/04/17 16:32:18;;;;;;;4.68;1.60;;;;;;;;;;11018007;26;20056;-74
2024/04/17 16:37:22;;;;;;;2.78;1.30;;;;;;;;;;11021828;26;20302;-74
2024/04/17 16:42:28;;;;;;;4.38;2.40;;;;;;;;;;11017268;26;20024;-74
2024/04/17 16:47:36;;;;;;;4.35;1.80;;;;;;;;;;11008112;26;20957;-74
2024/04/17 16:52:40;;;;;;;3.53;2.00;;;;;;;;;;11024864;26;20104;-73
2024/04/17 16:57:45;;;;;;;3.10;1.70;;;;;;;;;;11011142;26;20113;-74
2024/04/17 17:02:52;;;;;;;3.67;2.10;;;;;;;;;;11023879;26;20363;-74
2024/04/17 17:07:57;;;;;;;3.78;1.90;;;;;;;;;;11025765;26;20018;-75
2024/04/17 17:13:06;;;;;;;1.52;1.10;;;;;;;;;;10976661;26;20085;-75
2024/04/17 17:18:14;;;;;;;4.07;1.50;;;;;;;;;;10955864;26;20017;-74
2024/04/17 17:23:19;;;;;;;2.05;1.20;;;;;;;;;;10960223;26;20033;-74
2024/04/17 17:28:24;;;;;;;1.30;1.00;;;;;;;;;;10957997;26;20014;-74
2024/04/17 17:33:32;;;;;;;0.50;0.40;;;;;;;;;;10958510;26;20427;-74
2024/04/17 17:38:37;;;;;;;2.03;1.00;;;;;;;;;;10961379;26;20009;-75
2024/04/17 17:43:42;;;;;;;2.65;0.90;;;;;;;;;;10928805;26;20010;-74
2024/04/17 17:48:51;;;;;;;1.65;0.70;;;;;;;;;;10952425;26;20586;-74
2024/04/17 17:53:55;;;;;;;1.75;1.10;;;;;;;;;;10950407;26;21139;-74
2024/04/17 17:59:00;;;;;;;3.35;1.70;;;;;;;;;;10956929;26;20006;-75
2024/04/17 18:04:07;;;;;;;3.83;1.50;;;;;;;;;;10942973;26;20016;-74
2024/04/17 18:09:11;;;;;;;5.80;2.08;;;;;;;;;;10949461;26;20424;-74
2024/04/17 18:14:16;;;;;;;2.78;1.42;;;;;;;;;;10959699;26;20370;-75
2024/04/17 18:19:23;;;;;;;1.80;1.08;;;;;;;;;;10971030;26;20005;-73
2024/04/17 18:24:28;;;;;;;3.03;1.50;;;;;;;;;;10960878;26;20829;-74
2024/04/17 18:29:33;;;;;;;2.40;1.25;;;;;;;;;;10957266;26;20006;-75
2024/04/17 18:34:40;;;;;;;0.65;0.50;;;;;;;;;;10954615;26;20015;-75
2024/04/17 18:39:44;;;;;;;2.17;1.52;;;;;;;;;;10943494;26;20491;-74
2024/04/17 18:44:49;;;;;;;1.63;0.90;;;;;;;;;;10936869;26;20009;-74
2024/04/17 18:49:57;;;;;;;3.17;1.55;;;;;;;;;;10953337;26;20001;-75
2024/04/17 18:55:04;;;;;;;3.75;1.73;;;;;;;;;;10963326;26;20006;-75
2024/04/17 19:00:13;;;;;;;3.60;2.10;;;;;;;;;;10960351;26;20173;-77
2024/04/17 19:10:41;;;;;;;3.35;1.98;;;;;;;;;;10956969;26;20057;-74
2024/04/17 19:15:49;;;;;;;2.95;1.77;;;;;;;;;;10952339;26;20021;-76
2024/04/17 19:20:58;;;;;;;1.55;0.82;;;;;;;;;;10954534;26;20028;-75
2024/04/17 19:26:05;;;;;;;2.72;1.35;;;;;;;;;;10958015;26;20346;-77
2024/04/17 19:31:13;;;;;;;3.95;1.90;;;;;;;;;;10956704;26;20472;-76
2024/04/17 19:36:22;;;;;;;5.40;2.47;;;;;;;;;;10966096;26;20007;-75
2024/04/17 19:41:29;;;;;;;4.65;1.60;;;;;;;;;;10960041;26;20005;-76
2024/04/17 19:46:34;;;;;;;2.67;1.38;;;;;;;;;;10967429;26;20104;-75
2024/04/17 19:51:45;;;;;;;1.33;0.88;;;;;;;;;;10919843;26;20025;-75
2024/04/17 19:56:53;;;;;;;2.40;1.63;;;;;;;;;;10961589;26;20131;-74
2024/04/17 20:02:06;;;;;;;2.63;1.25;;;;;;;;;;10969190;26;20005;-74
2024/04/17 20:07:15;;;;;;;5.00;2.08;;;;;;;;;;10969139;26;20353;-75
2024/04/17 20:12:20;;;;;;;1.10;0.75;;;;;;;;;;10957921;26;20430;-76
2024/04/17 20:17:26;;;;;;;4.78;2.00;;;;;;;;;;10909178;26;20020;-75
2024/04/17 20:22:34;;;;;;;5.07;1.73;;;;;;;;;;10959397;26;20020;-76
2024/04/17 20:27:39;;;;;;;3.55;1.98;;;;;;;;;;10911405;26;20740;-76
2024/04/17 20:32:49;;;;;;;3.70;1.67;;;;;;;;;;10970498;26;20081;-75
2024/04/17 20:37:57;;;;;;;3.50;1.60;;;;;;;;;;10960007;26;20070;-75
2024/04/17 20:43:02;;;;;;;4.22;1.95;;;;;;;;;;10962299;26;20123;-77
2024/04/17 20:48:10;;;;;;;3.38;1.33;;;;;;;;;;10964936;26;20029;-74
2024/04/17 20:53:19;;;;;;;5.90;1.90;;;;;;;;;;10958472;26;20018;-76
2024/04/17 20:58:28;;;;;;;2.30;1.45;;;;;;;;;;10960509;26;20013;-75
2024/04/17 21:03:36;;;;;;;1.42;0.60;;;;;;;;;;10955665;26;20563;-76
2024/04/17 21:08:48;;;;;;;3.72;1.35;;;;;;;;;;10925839;26;20002;-77
2024/04/17 21:13:55;;;;;;;2.58;1.48;;;;;;;;;;11019203;26;20015;-73
2024/04/17 21:19:01;;;;;;;3.70;1.42;;;;;;;;;;11028682;26;20444;-75
2024/04/17 21:24:13;;;;;;;1.55;1.00;;;;;;;;;;11027235;26;20031;-75
2024/04/17 21:29:19;;;;;;;3.17;1.63;;;;;;;;;;11018086;26;20044;-74
2024/04/17 21:34:25;;;;;;;3.42;1.98;;;;;;;;;;11002206;26;20028;-75
2024/04/17 21:39:32;;;;;;;1.88;0.70;;;;;;;;;;11027330;26;20099;-75
2024/04/17 21:44:37;;;;;;;5.05;1.17;;;;;;;;;;11022187;26;20016;-75
2024/04/17 21:49:45;;;;;;;4.32;1.33;;;;;;;;;;10983680;26;20087;-75
2024/04/17 21:55:02;;;;;;;3.00;1.40;;;;;;;;;;11028605;26;20048;-75
2024/04/17 22:00:09;;;;;;;1.33;0.90;;;;;;;;;;11019804;26;20023;-75
2024/04/17 22:05:16;;;;;;;2.50;1.50;;;;;;;;;;11033205;26;20009;-76
2024/04/17 22:10:28;;;;;;;2.60;1.15;;;;;;;;;;11014250;26;20021;-75
2024/04/17 22:15:36;;;;;;;6.65;2.42;;;;;;;;;;10963833;26;20039;-75
2024/04/17 22:20:47;;;;;;;8.57;2.80;;;;;;;;;;10924906;26;20002;-76
2024/04/17 22:25:57;;;;;;;3.67;1.77;;;;;;;;;;10963386;26;20006;-77
2024/04/17 22:31:03;;;;;;;5.28;2.35;;;;;;;;;;10964607;26;20016;-75
2024/04/17 22:36:09;;;;;;;4.25;2.03;;;;;;;;;;10948866;26;20016;-78
2024/04/17 22:41:18;;;;;;;6.13;2.33;;;;;;;;;;10960425;26;20815;-75
2024/04/17 22:46:25;;;;;;;5.30;2.55;;;;;;;;;;10961548;26;20025;-74
2024/04/17 22:51:34;;;;;;;4.90;2.20;;;;;;;;;;10933477;26;20016;-74
2024/04/17 22:56:44;;;;;;;4.03;2.13;;;;;;;;;;10925609;26;20020;-75
2024/04/17 23:01:51;;;;;;;4.57;2.35;;;;;;;;;;10962665;26;20056;-74
2024/04/17 23:07:01;;;;;;;3.97;1.65;;;;;;;;;;10969912;26;20048;-74
2024/04/17 23:12:09;;;;;;;5.75;2.30;;;;;;;;;;10967634;26;20014;-74
2024/04/17 23:17:17;;;;;;;3.70;1.15;;;;;;;;;;10932637;26;20414;-75
2024/04/17 23:22:23;;;;;;;4.80;2.25;;;;;;;;;;10961634;26;20024;-76
2024/04/17 23:27:32;;;;;;;4.20;1.95;;;;;;;;;;10959220;26;20544;-75
2024/04/17 23:32:38;;;;;;;2.55;1.88;;;;;;;;;;10961956;26;20002;-74
2024/04/17 23:37:48;;;;;;;4.93;2.05;;;;;;;;;;10979214;26;21189;-75
2024/04/17 23:42:55;;;;;;;3.63;2.38;;;;;;;;;;10965169;26;20013;-75
2024/04/17 23:48:03;;;;;;;3.40;2.05;;;;;;;;;;10963169;26;20012;-76
2024/04/17 23:53:09;;;;;;;2.15;1.38;;;;;;;;;;10970809;26;20025;-77
2024/04/17 23:58:18;;;;;;;2.63;1.88;;;;;;;;;;10966748;26;20005;-77
